WETTERDATEN

HEUTE
Time Temp. Taup. r.Fe. Windrich Windstärke Windböe Druck 1h Prec. 24h Prec.
00:07 4.8 3.5 91 24 3.3 8.3 1021.1 0.0000 0.0000
00:17 4.8 3.5 91 27 4.2 6.4 1021.3 0.0000 0.0000
00:27 4.7 3.2 90 24 2.8 4.4 1021.4 0.0000 0.0000
00:37 4.6 3.3 91 26 2.8 6.1 1021.7 0.0000 0.0000
00:48 4.6 3.3 91 22 2.8 5 1021.9 0.0000 0.0000
00:58 4.6 3.3 91 24 3.3 5.3 1022.1 0.0000 0.0000
01:07 4.6 3.3 91 25 3.1 5.8 1022.3 0.0000 0.0000
01:18 4.5 3.2 91 19 2.2 4.2 1022.3 0.0000 0.0000
01:29 4.5 3.3 92 24 3.3 5.8 1022.5 0.0000 0.0000
01:34 4.6 3.4 92 32 3.1 5.3 1022.8 0.0000 0.0000
01:53 4.9 3.7 92 23 3.1 8.1 1023 0.0000 0.0000
02:02 5.1 3.9 92 33 4.4 10 1023.1 0.0000 0.0000
02:12 5.1 3.8 91 33 4.2 7.5 1023.4 0.0000 0.0000
02:23 5.2 3.7 90 32 4.4 8.1 1023.5 0.0000 0.0000
02:33 5.2 3.7 90 26 4.2 9.4 1023.7 0.0000 0.0000
02:39 5.2 3.7 90 32 4.2 7.2 1023.9 0.0000 0.0000
02:53 5.3 3.8 90 30 4.2 7.5 1024.1 0.0000 0.0000
03:04 5.3 3.8 90 30 5 8.3 1024.3 0.0000 0.0000
03:14 5.4 3.7 89 31 5 8.6 1024.5 0.0000 0.0000
03:24 5.4 3.6 88 33 5.8 9.2 1024.5 0.0000 0.0000
03:33 5.4 3.6 88 34 5.3 9.2 1024.8 0.0000 0.0000
03:44 5.4 3.6 88 34 5 8.3 1024.9 0.0000 0.0000
03:54 5.4 3.7 89 29 4.4 8.1 1025 0.0000 0.0000
04:14 5.4 3.9 90 33 5 8.6 1025.3 0.0000 0.0000
04:25 5.4 3.7 89 31 5.3 10 1025.4 0.0000 0.0000
04:36 5.5 3.7 88 33 4.2 8.6 1025.6 0.0000 0.0000
04:45 5.7 3.7 87 37 5.3 10 1025.9 0.0000 0.0000
04:56 5.8 3.5 85 42 6.4 10 1026.1 0.0000 0.0000
05:07 5.7 3 83 44 4.4 8.3 1026.1 0.0000 0.0000
05:16 5.7 3.2 84 41 4.4 9.2 1026.3 0.0000 0.0000
05:26 5.6 2.8 82 37 5.8 11.4 1026.4 0.0000 0.0000
05:36 5.6 2.4 80 41 5.8 9.4 1026.5 0.0000 0.0000
05:47 5.7 2.3 79 45 6.9 11.4 1026.8 0.0000 0.0000
05:57 5.6 2.4 80 38 6.4 10 1026.7 0.0000 0.0000
06:06 5.5 2.3 80 40 5.8 9.2 1026.8 0.0000 0.0000
06:17 5.5 2.3 80 44 5.3 8.6 1027.1 0.0000 0.0000
06:28 5.5 2.3 80 40 5 8.1 1027.2 0.0000 0.0000
06:38 5.5 2.5 81 43 5 8.3 1027.6 0.0000 0.0000
06:48 5.5 2.2 79 45 5.8 10.3 1027.9 0.0000 0.0000
06:58 5.5 2.2 79 41 5 8.6 1028 0.0000 0.0000
07:08 5.5 2 78 43 5 9.2 1028.2 0.0000 0.0000
07:18 5.5 1.6 76 46 6.1 11.4 1028.4 0.0000 0.0000
07:28 5.5 1.4 75 41 5.3 9.2 1028.7 0.0000 0.0000
07:39 5.5 1.6 76 38 6.4 10.6 1028.9 0.0000 0.0000
07:49 5.5 1.6 76 42 5.3 9.2 1029.1 0.0000 0.0000
07:55 5.5 1.6 76 39 5.8 11.1 1029.3 0.0000 0.0000
08:09 5.5 1.2 74 39 6.4 12.5 1029.6 0.0000 0.0000
08:20 5.5 1.1 73 45 6.9 11.1 1029.8 0.0000 0.0000
08:30 5.6 1.3 74 40 6.1 10 1030.1 0.0000 0.0000
08:39 5.6 1.3 74 43 6.4 11.1 1030.3 0.0000 0.0000
08:50 5.6 1.3 74 45 6.9 10.3 1030.7 0.0000 0.0000
09:00 5.6 1.3 74 43 5.8 9.4 1030.9 0.0000 0.0000
09:10 5.5 1.2 74 45 6.4 10.3 1031.2 0.0000 0.0000
09:20 5.6 1.3 74 45 5 9.4 1031.4 0.0000 0.0000
09:30 5.6 1.3 74 47 5.3 9.2 1031.5 0.0000 0.0000
09:40 5.7 1.4 74 44 5.3 9.4 1031.6 0.0000 0.0000
09:50 5.7 1.4 74 45 5 8.3 1031.8 0.0000 0.0000
10:00 5.8 1.3 73 44 5.8 11.4 1032 0.0000 0.0000
10:10 5.9 1.2 72 46 4.4 7.5 1032.2 0.0000 0.0000
10:20 6 1.1 71 42 5.3 10.3 1032.2 0.0000 0.0000
10:26 6 1 70 47 5.3 12.2 1032.4 0.0000 0.0000
10:38 6.1 1.2 71 42 5.8 12.2 1032.5 0.0000 0.0000
10:48 6.2 0.9 69 46 7.2 11.7 1032.7 0.0000 0.0000
10:58 6.2 1.1 70 43 5.8 10.3 1032.8 0.0000 0.0000
11:08 6.4 1.5 71 46 6.1 10 1032.9 0.0000 0.0000
11:20 6.6 1.9 72 45 5.3 13.3 1033.3 0.0000 0.0000
11:34 6.6 1.7 71 42 7.5 14.4 1033.4 0.0000 0.0000
11:44 6.7 2 72 45 5.8 10.6 1033.7 0.0000 0.0000
11:54 6.7 1.8 71 52 6.1 10.3 1033.7 0.0000 0.0000
12:04 6.7 2 72 47 6.1 11.1 1033.6 0.0000 0.0000
12:10 6.7 2.2 73 46 5.8 9.4 1033.8 0.0000 0.0000
12:25 6.8 2.1 72 52 5 8.6 1033.8 0.0000 0.0000
12:45 7 2.7 74 61 2.2 4.4 1033.9 0.0000 0.0000
12:49 7 2.7 74 61 3.9 11.4 1033.9 0.0000 0.0000
12:59 7 2.5 73 39 7.5 13.6 1033.9 0.0000 0.0000
13:08 7 2.9 75 34 6.1 12.5 1034.2 0.0000 0.0000
13:19 7 2.9 75 38 6.4 11.4 1034.3 0.0000 0.0000
13:27 7 3.1 76 42 6.1 11.1 1034.5 0.0000 0.0000
13:38 7 3.1 76 38 5.3 9.2 1034.7 0.0000 0.0000
13:48 7 3.2 77 45 5.8 12.5 1034.7 0.0000 0.0000
13:58 7.1 3.3 77 34 5.3 10 1034.8 0.0000 0.0000
14:08 7.1 3.5 78 35 5.3 9.4 1034.9 0.0000 0.0000
14:18 7.1 3.7 79 35 4.2 8.1 1035 0.0000 0.0000
14:26 7.1 3.9 80 36 5 10.6 1035 0.0000 0.0000
14:36 7.1 3.9 80 40 5 9.4 1035.2 0.0000 0.0000
14:46 7.1 4.1 81 38 4.2 8.6 1035.5 0.0000 0.0000
14:56 7 4 81 33 5.8 9.2 1035.6 0.0000 0.0000
15:15 6.9 4.2 83 38 4.2 8.1 1036 0.0000 0.0000
15:25 6.8 4.1 83 34 4.2 7.5 1036.1 0.0000 0.0000
15:35 6.7 4 83 33 4.4 8.3 1036.3 0.0000 0.0000
15:41 6.7 4.2 84 28 5 8.6 1036.4 0.0000 0.0000
15:56 6.6 4.3 85 35 4.2 7.2 1036.7 0.0000 0.0000
16:06 6.5 4.3 86 39 4.2 6.4 1036.9 0.0000 0.0000
16:16 6.4 4.2 86 33 3.3 7.2 1037 0.0000 0.0000
16:26 6.2 4.2 87 32 3.9 8.1 1037 0.0000 0.0000
16:37 6.1 4.1 87 32 3.3 6.1 1037 0.0000 0.0000
16:46 6 4 87 29 2.8 5 1037 0.0000 0.0000
16:57 5.9 4.1 88 27 2.8 5.3 1037.3 0.0000 0.0000
17:07 5.8 4 88 28 2.2 4.2 1037.4 0.0000 0.0000
17:17 5.8 4.1 89 37 3.1 6.4 1037.6 0.0000 0.0000
17:27 5.8 4.1 89 36 3.3 5.3 1037.5 0.0000 0.0000
17:37 5.8 4.1 89 28 3.3 6.9 1037.5 0.0000 0.0000
17:47 5.8 4.3 90 33 3.9 8.1 1037.5 0.0000 0.0000
17:57 5.8 4.3 90 33 3.9 6.9 1037.8 0.0000 0.0000
18:08 5.8 4.4 91 33 3.3 6.1 1038 0.0000 0.0000
18:17 5.8 4.4 91 27 4.2 6.9 1038.2 0.0000 0.0000
18:27 5.8 4.6 92 28 4.4 8.6 1038.5 0.0000 0.0000
18:37 5.9 4.7 92 27 4.4 8.1 1038.4 0.0000 0.0000
18:48 5.9 4.7 92 31 4.4 8.6 1038.5 0.0000 0.0000
18:58 5.9 4.7 92 28 3.9 6.9 1038.5 0.0000 0.0000
19:08 5.9 4.7 92 26 5 8.3 1038.6 0.0000 0.0000
19:18 5.9 4.7 92 29 4.2 7.5 1038.8 0.0000 0.0000
19:29 5.8 4.6 92 28 4.2 6.9 1038.8 0.0000 0.0000
19:38 5.8 4.6 92 28 3.9 7.2 1039 0.0000 0.0000
19:48 5.8 4.6 92 27 3.3 5.8 1039.3 0.0000 0.0000
19:58 5.8 4.8 93 29 4.2 7.5 1039.4 0.0000 0.0000
20:09 5.8 4.8 93 29 3.3 6.1 1039.5 0.0000 0.0000
20:19 5.9 4.9 93 31 3.3 6.1 1039.5 0.0000 0.0000
20:29 5.8 4.8 93 25 2.8 5.3 1039.7 0.0000 0.0000
20:40 5.8 4.6 92 17 1.4 3.9 1039.8 0.0000 0.0000
20:49 5.6 4.4 92 15 1.9 3.9 1040 0.0000 0.0000
20:59 5.5 4.5 93 14 2.2 3.9 1039.8 0.0000 0.0000
21:09 5.5 4.5 93 11 1.4 2.8 1039.9 0.0000 0.0000
21:20 5.5 4.6 94 16 1.4 3.9 1040.2 0.0000 0.0000
21:30 5.5 4.8 95 21 1.9 3.9 1040.2 0.0000 0.0000
21:40 5.6 4.9 95 17 1.9 4.4 1040.3 0.0000 0.0000
21:51 5.7 5.1 96 25 3.3 5.8 1040.4 0.0000 0.0000
22:00 5.8 5.2 96 22 2.8 4.4 1040.7 0.0000 0.0000
22:10 5.8 5.1 95 18 2.8 4.4 1040.8 0.0000 0.0000
22:20 5.8 5.1 95 23 2.8 4.4 1040.8 0.0000 0.0000

TAGESSTATISTIK

2020-01-19
TEMPERATUR
MITTEL
5.8
MAXIMUM
7.1
13:58
MINIMUM
4.5
01:18
LUFTDRUCK
MITTEL
1032.0
MAXIMUM
1040.8
22:10
MINIMUM
1021.1
00:07
TAUPUNKT
MITTEL
3.2
MAXIMUM
5.2
22:00
MINIMUM
0.9
10:48
FEUCHTIGKEIT
MITTEL
84
MAXIMUM
96
21:51
MINIMUM
69
10:48
WINDSTÄRKE
MITTEL
4.5
MAXIMUM
7.5
11:34
WINDBÖE
MITTEL
8.3
MAXIMUM
14.4
11:34
WINDRICHTUNG
VORHERRSCHENDE
NO
91.5%
N
8.5
NO
91.5
O
0.0
SO
0.0
S
0.0
SW
0.0
W
0.0
NW
0.0
NIEDERSCHLAG
REGEN STUNDE
0.0
REGEN TAG
0.0
TEMPERATUR (°C)
MINIMUM
4.5
MAXIMUM
7.1
MITTEL
5.8
LUFTDRUCK (hpa)
MINIMUM
1021.1
MAXIMUM
1040.8
MITTEL
1032.0
MESSGERÄT